Time;durP1;ratioP1;P1;durP2;ratioP2;P2;SDS_P1;SDS_P2;PMS_P1;PMS_P2;Temp;Humidity;BMP_temperature;BMP_pressure;BME280_temperature;BME280_humidity;BME280_pressure;Samples;Min_cycle;Max_cycle;Signal;HPM_P1;HPM_P2
2023/09/14 00:01:45;;;;;;;16.70;12.50;;;;;;;20.27;56.07;100424.98;105430;1252;67473;-57
2023/09/14 00:04:12;;;;;;;21.00;12.90;;;;;;;20.24;56.26;100418.34;105364;1257;62393;-57
2023/09/14 00:06:41;;;;;;;17.30;12.50;;;;;;;20.21;56.56;100423.11;105585;1254;63678;-57
2023/09/14 00:09:09;;;;;;;23.40;12.80;;;;;;;20.18;56.52;100427.05;105633;1254;60542;-57
2023/09/14 00:11:37;;;;;;;22.00;13.30;;;;;;;20.14;56.53;100431.61;105227;1257;60552;-57
2023/09/14 00:14:04;;;;;;;19.50;13.70;;;;;;;20.11;56.56;100428.35;105255;1257;65016;-58
2023/09/14 00:16:32;;;;;;;20.40;13.20;;;;;;;20.06;56.86;100428.70;105741;1254;61474;-58
2023/09/14 00:18:59;;;;;;;17.10;13.00;;;;;;;20.06;57.00;100423.92;105218;1255;64271;-56
2023/09/14 00:21:27;;;;;;;16.50;12.10;;;;;;;20.07;57.21;100419.70;105745;1253;60530;-57
2023/09/14 00:23:55;;;;;;;20.40;12.80;;;;;;;20.06;57.31;100417.52;105210;1254;60550;-56
2023/09/14 00:26:23;;;;;;;17.00;13.20;;;;;;;20.04;57.34;100417.55;105445;1256;64968;-57
2023/09/14 00:28:51;;;;;;;20.20;14.50;;;;;;;20.02;57.64;100417.75;105248;1254;61371;-56
2023/09/14 00:31:18;;;;;;;19.60;13.30;;;;;;;20.00;57.57;100417.80;105453;1257;62440;-57
2023/09/14 00:33:46;;;;;;;18.40;13.40;;;;;;;19.99;57.56;100412.81;105360;1253;60473;-57
2023/09/14 00:36:14;;;;;;;22.10;13.90;;;;;;;19.96;57.42;100411.34;105537;1254;60498;-57
2023/09/14 00:38:41;;;;;;;20.60;14.70;;;;;;;19.92;57.36;100411.65;105387;1254;64995;-56
2023/09/14 00:41:09;;;;;;;20.30;13.40;;;;;;;19.89;57.35;100407.83;105507;1254;61303;-56
2023/09/14 00:43:37;;;;;;;20.90;12.70;;;;;;;19.88;57.39;100406.83;105294;1257;63763;-58
2023/09/14 00:46:07;;;;;;;19.40;13.60;;;;;;;19.88;57.39;100403.79;106436;1254;60556;-57
2023/09/14 00:48:35;;;;;;;20.50;14.30;;;;;;;19.86;57.61;100400.60;105195;1257;60371;-57
2023/09/14 00:51:03;;;;;;;18.80;12.90;;;;;;;19.84;57.60;100397.32;105935;1254;63722;-56
2023/09/14 00:53:31;;;;;;;24.50;14.40;;;;;;;19.81;57.51;100395.55;105306;1257;60463;-57
2023/09/14 00:55:59;;;;;;;19.60;15.20;;;;;;;19.76;57.66;100393.28;106142;1254;63772;-57
2023/09/14 00:58:26;;;;;;;18.10;13.20;;;;;;;19.70;57.65;100394.70;105214;1257;60599;-55
2023/09/14 01:00:57;;;;;;;19.00;14.00;;;;;;;19.64;57.67;100395.36;105264;1260;60527;-55
2023/09/14 01:03:25;;;;;;;21.30;14.90;;;;;;;19.60;57.43;100395.00;106033;1257;63682;-55
2023/09/14 01:05:54;;;;;;;23.90;14.20;;;;;;;19.56;57.08;100396.13;105900;1257;69222;-55
2023/09/14 01:08:22;;;;;;;24.80;14.00;;;;;;;19.51;56.94;100391.73;105169;1254;63786;-56
2023/09/14 01:10:49;;;;;;;18.30;12.80;;;;;;;19.46;57.03;100389.08;105218;1254;60898;-55
2023/09/14 01:13:42;;;;;;;16.10;11.70;;;;;;;19.47;56.90;100389.02;105226;1257;60435;-56
2023/09/14 01:16:15;;;;;;;19.60;12.70;;;;;;;19.48;56.97;100382.66;105302;1253;64923;-57
2023/09/14 01:18:47;;;;;;;17.70;12.60;;;;;;;19.46;57.30;100384.86;105510;1254;61999;-57
2023/09/14 01:21:41;;;;;;;21.00;13.30;;;;;;;19.43;57.24;100384.11;105534;1256;64165;-58
2023/09/14 01:24:46;;;;;;;20.10;13.50;;;;;;;19.39;57.20;100385.07;105371;1259;60613;-57
2023/09/14 01:27:14;;;;;;;18.10;13.90;;;;;;;19.35;57.46;100387.41;105412;1254;60648;-56
2023/09/14 01:29:42;;;;;;;20.20;13.70;;;;;;;19.29;57.68;100381.47;105542;1254;64978;-56
2023/09/14 01:32:11;;;;;;;18.30;13.70;;;;;;;19.24;57.89;100389.23;105436;1252;61546;-57
2023/09/14 01:34:39;;;;;;;20.70;12.60;;;;;;;19.18;58.19;100388.95;105353;1253;63732;-58
2023/09/14 01:37:07;;;;;;;18.80;12.50;;;;;;;19.18;58.19;100390.59;106242;1257;60371;-57
2023/09/14 01:39:35;;;;;;;17.20;12.50;;;;;;;19.19;58.26;100387.44;105373;1256;60617;-57
2023/09/14 01:42:03;;;;;;;22.60;13.30;;;;;;;19.16;58.41;100390.17;105297;1253;65017;-57
2023/09/14 01:44:31;;;;;;;25.30;14.10;;;;;;;19.11;58.51;100382.55;105268;1259;60351;-57
2023/09/14 01:47:00;;;;;;;18.80;13.90;;;;;;;19.08;58.62;100376.67;105723;1252;63724;-57
2023/09/14 01:49:29;;;;;;;18.80;13.40;;;;;;;19.04;58.63;100374.44;105163;1257;60564;-56
2023/09/14 01:51:56;;;;;;;21.10;13.00;;;;;;;19.01;58.87;100369.13;105270;1254;60547;-58
2023/09/14 01:54:24;;;;;;;20.90;14.20;;;;;;;18.96;59.01;100366.16;105234;1254;64963;-55
2023/09/14 01:56:52;;;;;;;20.40;13.40;;;;;;;18.90;59.11;100363.40;105365;1254;61291;-54
2023/09/14 01:59:20;;;;;;;17.90;12.60;;;;;;;18.89;59.25;100361.97;105321;1257;63776;-55
2023/09/14 02:01:48;;;;;;;17.80;12.40;;;;;;;18.91;59.39;100352.69;105260;1254;60563;-55
2023/09/14 02:04:16;;;;;;;18.80;13.60;;;;;;;18.92;59.60;100349.02;107059;1252;60387;-56
2023/09/14 02:06:43;;;;;;;23.00;13.30;;;;;;;18.90;59.60;100352.00;105327;1253;65059;-54
2023/09/14 02:09:11;;;;;;;17.90;12.70;;;;;;;18.89;59.53;100353.98;105227;1253;62552;-56
2023/09/14 02:11:38;;;;;;;21.90;14.10;;;;;;;18.88;59.42;100350.93;105194;1254;64415;-57
2023/09/14 02:14:06;;;;;;;19.30;14.10;;;;;;;18.87;59.29;100352.03;105263;1253;60611;-57
2023/09/14 02:16:34;;;;;;;19.20;13.00;;;;;;;18.85;59.23;100354.44;105435;1257;59489;-57
2023/09/14 02:19:02;;;;;;;20.40;13.40;;;;;;;18.81;59.36;100358.20;105625;1254;66106;-56
2023/09/14 02:21:30;;;;;;;18.70;12.60;;;;;;;18.82;59.26;100354.93;105441;1256;73064;-56
2023/09/14 02:23:58;;;;;;;19.90;12.50;;;;;;;18.83;59.29;100352.11;105823;1254;62419;-57
2023/09/14 02:26:25;;;;;;;16.70;12.50;;;;;;;18.83;59.33;100358.40;105774;1253;60787;-55
2023/09/14 02:28:53;;;;;;;17.20;13.40;;;;;;;18.80;59.37;100358.84;105426;1251;60534;-54
2023/09/14 02:31:20;;;;;;;20.60;13.60;;;;;;;18.80;59.52;100364.41;105288;1253;64921;-62
2023/09/14 02:33:48;;;;;;;16.90;12.00;;;;;;;18.79;59.42;100361.32;105224;1253;61334;-66
2023/09/14 02:36:16;;;;;;;17.40;12.60;;;;;;;18.75;59.45;100371.20;105513;1253;64083;-61
2023/09/14 02:38:45;;;;;;;17.10;12.20;;;;;;;18.69;59.49;100371.55;105431;1251;61824;-58
2023/09/14 02:41:14;;;;;;;17.10;12.10;;;;;;;18.64;59.83;100367.88;105270;1256;60351;-58
2023/09/14 02:43:42;;;;;;;17.00;12.30;;;;;;;18.63;60.02;100368.36;105212;1253;65449;-57
2023/09/14 02:46:09;;;;;;;15.40;12.20;;;;;;;18.62;60.30;100363.79;107234;1252;61332;-57
2023/09/14 02:48:37;;;;;;;16.80;12.30;;;;;;;18.62;60.62;100358.06;105267;1257;62518;-57
2023/09/14 02:51:04;;;;;;;18.40;12.70;;;;;;;18.63;60.94;100357.82;105212;1253;60467;-56
2023/09/14 02:53:32;;;;;;;19.80;12.90;;;;;;;18.62;60.90;100358.66;105132;1256;60443;-57
2023/09/14 02:55:59;;;;;;;22.10;12.80;;;;;;;18.60;61.06;100366.03;105321;1252;64951;-57
2023/09/14 02:58:27;;;;;;;18.60;12.90;;;;;;;18.56;61.11;100363.59;105150;1256;60588;-58
2023/09/14 03:00:54;;;;;;;19.00;13.70;;;;;;;18.51;61.26;100363.09;105249;1253;63675;-56
2023/09/14 03:03:22;;;;;;;17.20;11.60;;;;;;;18.45;61.34;100362.31;105136;1253;60572;-56
2023/09/14 03:05:50;;;;;;;18.60;12.60;;;;;;;18.43;61.45;100361.56;105317;1253;60693;-57
2023/09/14 03:08:18;;;;;;;18.90;12.00;;;;;;;18.41;61.56;100361.94;105962;1256;63651;-54
2023/09/14 03:10:46;;;;;;;18.80;12.20;;;;;;;18.37;61.56;100359.63;105232;1258;61717;-56
2023/09/14 03:13:13;;;;;;;20.90;13.30;;;;;;;18.33;61.72;100362.73;105008;1256;62592;-57
2023/09/14 03:15:41;;;;;;;19.40;12.90;;;;;;;18.29;61.81;100360.77;105153;1253;60553;-57
2023/09/14 03:18:09;;;;;;;17.20;12.80;;;;;;;18.25;62.07;100367.27;105356;1256;60364;-57
2023/09/14 03:20:40;;;;;;;16.80;13.10;;;;;;;18.23;62.25;100368.95;105146;1254;63607;-57
2023/09/14 03:23:08;;;;;;;15.00;12.50;;;;;;;18.19;62.55;100368.94;105311;1253;63735;-57
2023/09/14 03:25:36;;;;;;;18.20;11.70;;;;;;;18.20;62.84;100368.83;105212;1254;63738;-57
2023/09/14 03:28:04;;;;;;;15.90;11.70;;;;;;;18.23;62.95;100374.55;104702;1257;311212;-56
2023/09/14 03:32:22;;;;;;;16.10;12.10;;;;;;;18.12;63.72;100378.09;102405;1298;601048;-56
2023/09/14 03:34:50;;;;;;;19.00;12.20;;;;;;;18.25;63.38;100380.23;104477;1270;59228;-57
2023/09/14 03:37:18;;;;;;;20.30;14.00;;;;;;;18.27;63.32;100375.27;104420;1272;59236;-56
2023/09/14 03:39:46;;;;;;;16.00;12.60;;;;;;;18.27;63.26;100374.73;105215;1255;72565;-58
2023/09/14 03:42:14;;;;;;;20.40;13.40;;;;;;;18.25;63.21;100373.44;104948;1260;60098;-58
2023/09/14 03:44:43;;;;;;;15.70;12.50;;;;;;;18.28;63.18;100375.25;105129;1254;63883;-57
2023/09/14 03:47:10;;;;;;;20.10;12.60;;;;;;;18.36;63.02;100382.34;105119;1255;243710;-58
2023/09/14 03:49:38;;;;;;;17.20;11.90;;;;;;;18.42;62.91;100384.59;105342;1257;59251;-58
2023/09/14 03:52:05;;;;;;;16.40;13.00;;;;;;;18.44;62.95;100385.36;105504;1257;63757;-57
2023/09/14 03:54:33;;;;;;;17.80;12.30;;;;;;;18.46;62.97;100386.23;105674;1256;60097;-57
2023/09/14 03:57:01;;;;;;;17.40;13.30;;;;;;;18.47;62.95;100381.68;105217;1255;62683;-58
2023/09/14 03:59:28;;;;;;;18.60;13.10;;;;;;;18.51;62.84;100373.34;105206;1256;62747;-57
2023/09/14 04:01:56;;;;;;;17.60;12.80;;;;;;;18.58;62.66;100368.17;105004;1257;60771;-57
2023/09/14 04:04:24;;;;;;;21.10;12.60;;;;;;;18.61;62.52;100373.16;105911;1257;62810;-57
2023/09/14 04:06:51;;;;;;;18.40;12.90;;;;;;;18.63;62.37;100378.11;105326;1253;61386;-56
2023/09/14 04:09:19;;;;;;;15.60;12.60;;;;;;;18.65;62.23;100376.27;106074;1255;63674;-57
2023/09/14 04:11:47;;;;;;;19.10;11.90;;;;;;;18.65;61.82;100380.83;105209;1257;59717;-55
2023/09/14 04:14:14;;;;;;;16.20;11.70;;;;;;;18.63;61.40;100385.00;105167;1257;59845;-56
2023/09/14 04:16:43;;;;;;;18.40;12.20;;;;;;;18.61;61.36;100381.31;105303;1257;64566;-59
2023/09/14 04:19:12;;;;;;;17.00;11.10;;;;;;;18.63;61.23;100383.33;105618;1260;61428;-60
2023/09/14 04:21:44;;;;;;;20.00;12.60;;;;;;;18.68;61.14;100383.68;105402;1257;65786;-59
2023/09/14 04:24:12;;;;;;;17.70;11.20;;;;;;;18.72;61.05;100381.08;105493;1255;61051;-59
2023/09/14 04:26:40;;;;;;;19.50;12.10;;;;;;;18.74;61.00;100377.84;105357;1256;59830;-60
2023/09/14 04:29:07;;;;;;;17.70;12.60;;;;;;;18.73;60.93;100375.98;105442;1251;64098;-54
2023/09/14 04:31:35;;;;;;;15.50;12.10;;;;;;;18.71;60.95;100377.26;105551;1256;60402;-56
2023/09/14 04:34:04;;;;;;;16.30;12.30;;;;;;;18.70;60.95;100372.84;104985;1254;62548;-58
2023/09/14 04:36:32;;;;;;;19.50;12.00;;;;;;;18.71;60.93;100370.39;105533;1257;59762;-60
2023/09/14 04:39:00;;;;;;;17.70;10.20;;;;;;;18.76;60.83;100374.48;106389;1254;59637;-60
2023/09/14 04:41:28;;;;;;;14.10;10.60;;;;;;;18.80;60.75;100374.03;105658;1258;64043;-64
2023/09/14 04:43:55;;;;;;;16.60;11.10;;;;;;;18.83;60.81;100375.64;105005;1253;61807;-63
2023/09/14 04:46:23;;;;;;;18.10;12.30;;;;;;;18.85;60.82;100376.02;106564;1254;63824;-55
2023/09/14 04:48:51;;;;;;;19.20;13.30;;;;;;;18.88;60.93;100379.38;104929;1254;59810;-65
2023/09/14 04:51:21;;;;;;;19.70;13.30;;;;;;;18.89;61.18;100376.67;105202;1256;59710;-70
2023/09/14 04:53:49;;;;;;;16.20;12.60;;;;;;;18.90;61.47;100378.70;104782;1256;66599;-61
2023/09/14 04:56:16;;;;;;;18.50;12.10;;;;;;;18.91;61.61;100381.66;104989;1251;61403;-64
2023/09/14 04:58:44;;;;;;;17.50;11.80;;;;;;;18.94;61.60;100385.38;105157;1254;63827;-56
2023/09/14 05:01:12;;;;;;;18.60;13.50;;;;;;;19.00;61.28;100387.86;105065;1257;59749;-59
2023/09/14 05:03:40;;;;;;;18.40;12.60;;;;;;;19.02;61.08;100384.95;105475;1256;59564;-60
2023/09/14 05:06:09;;;;;;;19.30;12.80;;;;;;;19.01;60.99;100385.11;105201;1257;64108;-66
2023/09/14 05:08:36;;;;;;;18.80;13.30;;;;;;;19.00;60.81;100382.73;109208;1251;60248;-66
2023/09/14 05:11:04;;;;;;;17.50;12.90;;;;;;;19.02;60.84;100383.73;109350;1253;62659;-59
2023/09/14 05:13:32;;;;;;;18.20;13.10;;;;;;;19.05;60.91;100384.80;109238;1251;57841;-71
2023/09/14 05:16:00;;;;;;;16.20;11.60;;;;;;;19.08;60.80;100384.46;109187;1254;59774;-70
2023/09/14 05:18:28;;;;;;;17.20;11.40;;;;;;;19.16;60.41;100381.05;107263;1251;62840;-65
2023/09/14 05:20:56;;;;;;;17.80;11.70;;;;;;;19.25;60.18;100381.80;105318;1257;63490;-61
2023/09/14 05:23:23;;;;;;;16.70;12.10;;;;;;;19.30;60.16;100378.85;105371;1257;62424;-65
2023/09/14 05:25:51;;;;;;;13.80;11.00;;;;;;;19.36;60.10;100377.67;105235;1254;59688;-69
2023/09/14 05:28:18;;;;;;;15.40;11.10;;;;;;;19.40;60.03;100373.33;105386;1256;59669;-66
2023/09/14 05:30:46;;;;;;;15.30;12.00;;;;;;;19.43;59.79;100373.07;105488;1254;64189;-64
2023/09/14 05:33:14;;;;;;;19.30;12.20;;;;;;;19.48;59.61;100374.13;105162;1254;61320;-64
2023/09/14 05:35:43;;;;;;;14.40;11.10;;;;;;;19.53;59.43;100375.52;108690;1254;63849;-65
2023/09/14 05:38:12;;;;;;;15.20;11.20;;;;;;;19.62;58.88;100376.80;105356;1254;59826;-58
2023/09/14 05:40:40;;;;;;;20.50;11.60;;;;;;;19.72;58.66;100377.40;105615;1251;60838;-59
2023/09/14 05:43:08;;;;;;;21.30;12.20;;;;;;;19.79;58.61;100380.13;105796;1253;64096;-68
2023/09/14 05:45:36;;;;;;;21.40;13.30;;;;;;;19.86;58.33;100373.37;105747;1252;63414;-61
2023/09/14 05:48:05;;;;;;;19.40;11.40;;;;;;;19.92;58.32;100364.25;105251;1251;62434;-62
2023/09/14 05:50:36;;;;;;;18.50;12.00;;;;;;;19.97;58.19;100363.52;105173;1260;59676;-70
2023/09/14 05:53:05;;;;;;;20.10;12.80;;;;;;;20.02;57.93;100365.20;105609;1254;59656;-78
2023/09/14 05:55:33;;;;;;;17.80;12.00;;;;;;;20.07;57.68;100367.89;105848;1254;64180;-67
2023/09/14 05:58:00;;;;;;;17.80;11.90;;;;;;;20.11;57.87;100373.65;105446;1257;61396;-68
2023/09/14 06:00:28;;;;;;;16.60;11.50;;;;;;;20.19;57.98;100367.13;105527;1256;62603;-65
2023/09/14 06:02:56;;;;;;;16.80;11.50;;;;;;;20.30;57.92;100369.20;105161;1251;59624;-69
2023/09/14 06:05:24;;;;;;;16.80;11.70;;;;;;;20.38;57.98;100371.40;105236;1254;59746;-61
2023/09/14 06:07:53;;;;;;;23.70;12.30;;;;;;;20.42;58.04;100368.08;105116;1257;63042;-60
2023/09/14 06:10:23;;;;;;;17.70;12.90;;;;;;;20.46;57.86;100366.77;106094;1250;60249;-62
2023/09/14 06:12:51;;;;;;;18.90;12.80;;;;;;;20.49;57.41;100365.20;106112;1253;63714;-61
2023/09/14 06:15:19;;;;;;;16.90;11.70;;;;;;;20.53;57.07;100366.36;105346;1251;59774;-53
2023/09/14 06:17:47;;;;;;;17.30;11.70;;;;;;;20.56;56.65;100366.11;105291;1254;59733;-59
2023/09/14 06:20:15;;;;;;;21.50;11.70;;;;;;;20.58;56.48;100367.52;105526;1251;64142;-57
2023/09/14 06:22:43;;;;;;;22.20;12.00;;;;;;;20.59;56.55;100368.48;105611;1257;61563;-57
2023/09/14 06:25:11;;;;;;;15.00;10.90;;;;;;;20.66;56.46;100370.17;105482;1256;63724;-57
2023/09/14 06:27:38;;;;;;;21.00;11.60;;;;;;;20.75;56.41;100371.93;105466;1257;59739;-60
2023/09/14 06:30:08;;;;;;;16.00;11.90;;;;;;;20.82;56.38;100370.55;105430;1251;60995;-59
2023/09/14 06:32:35;;;;;;;18.90;12.10;;;;;;;20.87;56.32;100365.91;105827;1254;64281;-57
2023/09/14 06:35:04;;;;;;;15.40;11.20;;;;;;;20.92;56.30;100366.70;105504;1251;61531;-59
2023/09/14 06:37:31;;;;;;;20.70;11.80;;;;;;;20.98;56.06;100364.21;105881;1256;63699;-58
2023/09/14 06:39:58;;;;;;;22.40;13.30;;;;;;;21.02;55.92;100367.29;105380;1254;59797;-58
2023/09/14 06:42:26;;;;;;;20.00;12.10;;;;;;;21.05;55.95;100369.30;105981;1256;59973;-57
2023/09/14 06:44:54;;;;;;;20.90;12.30;;;;;;;21.07;56.14;100374.13;105395;1251;62835;-57
2023/09/14 06:47:22;;;;;;;20.30;11.50;;;;;;;21.14;56.26;100372.05;106202;1257;61374;-58
2023/09/14 06:49:49;;;;;;;16.00;11.70;;;;;;;21.23;56.10;100369.86;105408;1257;63807;-59
2023/09/14 06:52:17;;;;;;;17.60;12.20;;;;;;;21.29;55.83;100366.91;105448;1254;59673;-58
2023/09/14 06:54:46;;;;;;;19.40;11.80;;;;;;;21.34;55.75;100365.25;105502;1251;59596;-59
2023/09/14 06:57:13;;;;;;;15.10;11.40;;;;;;;21.40;55.88;100363.69;105575;1251;64132;-57
2023/09/14 06:59:41;;;;;;;15.90;11.20;;;;;;;21.45;55.73;100364.70;105305;1256;60251;-57
2023/09/14 07:02:09;;;;;;;18.90;11.70;;;;;;;21.48;55.81;100357.12;105510;1253;64055;-56
2023/09/14 07:04:37;;;;;;;17.50;11.60;;;;;;;21.52;55.73;100354.14;105380;1254;60431;-58
2023/09/14 07:07:04;;;;;;;17.90;10.90;;;;;;;21.58;55.48;100353.52;105250;1251;59653;-59
2023/09/14 07:09:32;;;;;;;16.00;10.90;;;;;;;21.65;55.49;100352.37;105313;1256;64655;-58
2023/09/14 07:11:59;;;;;;;16.10;11.30;;;;;;;21.77;55.57;100358.25;105473;1251;61314;-54
2023/09/14 07:14:27;;;;;;;16.50;10.90;;;;;;;21.87;55.66;100359.30;105435;1253;63718;-57
2023/09/14 07:16:55;;;;;;;18.30;11.10;;;;;;;21.97;55.37;100363.05;105261;1253;59718;-55
2023/09/14 07:19:26;;;;;;;18.60;12.20;;;;;;;22.05;55.09;100364.58;105253;1257;59544;-54
2023/09/14 07:21:57;;;;;;;15.50;11.10;;;;;;;22.12;54.98;100358.38;105935;1251;64711;-53
2023/09/14 07:24:26;;;;;;;16.10;11.70;;;;;;;22.17;55.07;100357.42;106139;1251;61944;-54
2023/09/14 07:26:54;;;;;;;16.90;11.30;;;;;;;22.21;55.01;100356.45;105448;1251;63733;-55
2023/09/14 07:29:22;;;;;;;15.70;10.00;;;;;;;22.28;55.16;100357.92;106028;1256;59765;-56
2023/09/14 07:31:50;;;;;;;14.60;9.50;;;;;;;22.42;55.26;100358.78;104954;1251;59986;-57
2023/09/14 07:34:19;;;;;;;14.80;10.30;;;;;;;22.59;54.99;100358.83;106694;1253;64486;-59
2023/09/14 07:36:47;;;;;;;24.40;10.10;;;;;;;22.75;53.86;100357.70;105306;1254;69356;-57
2023/09/14 07:39:14;;;;;;;17.80;11.40;;;;;;;22.85;54.00;100356.16;105395;1254;62624;-59
2023/09/14 07:41:42;;;;;;;15.70;10.70;;;;;;;22.97;54.04;100353.48;105153;1258;60532;-59
2023/09/14 07:44:09;;;;;;;18.90;10.10;;;;;;;23.08;53.50;100347.98;105662;1251;60901;-58
2023/09/14 07:46:37;;;;;;;16.70;11.20;;;;;;;23.16;53.28;100345.15;105523;1254;63689;-58
2023/09/14 07:49:08;;;;;;;16.70;10.10;;;;;;;23.20;53.30;100343.00;105686;1251;63643;-58
2023/09/14 07:51:36;;;;;;;18.10;10.90;;;;;;;23.22;52.92;100344.52;105639;1251;63987;-58
2023/09/14 07:54:04;;;;;;;15.40;9.40;;;;;;;23.23;52.53;100344.95;105057;1255;60533;-58
2023/09/14 07:56:31;;;;;;;20.90;13.10;;;;;;;23.23;52.19;100341.14;105304;1251;60553;-58
2023/09/14 07:58:59;;;;;;;20.70;10.60;;;;;;;23.24;52.35;100340.52;105151;1251;63668;-59
2023/09/14 08:01:26;;;;;;;16.00;10.70;;;;;;;23.25;52.37;100342.02;105181;1256;61938;-60
2023/09/14 08:03:54;;;;;;;13.90;9.50;;;;;;;23.25;52.07;100338.95;105348;1255;64315;-60
2023/09/14 08:06:24;;;;;;;15.00;9.70;;;;;;;23.24;52.02;100339.20;109426;1251;58403;-61
2023/09/14 08:08:53;;;;;;;16.20;10.50;;;;;;;23.23;52.06;100332.75;109329;1251;58061;-58
2023/09/14 08:11:21;;;;;;;14.80;10.00;;;;;;;23.22;52.10;100334.28;105522;1251;66823;-62
2023/09/14 08:13:49;;;;;;;14.50;10.00;;;;;;;23.22;52.42;100336.52;105495;1256;63991;-60
2023/09/14 08:16:16;;;;;;;12.10;9.40;;;;;;;23.25;52.15;100335.48;105493;1251;63819;-60
2023/09/14 08:18:45;;;;;;;16.30;10.10;;;;;;;23.33;51.93;100331.52;106389;1254;60521;-61
2023/09/14 08:21:12;;;;;;;13.60;9.10;;;;;;;23.42;51.65;100328.08;107285;1251;60405;-60
2023/09/14 08:23:40;;;;;;;17.30;10.40;;;;;;;23.50;51.77;100327.40;105386;1251;63804;-60
2023/09/14 08:26:08;;;;;;;15.30;9.90;;;;;;;23.61;51.44;100328.61;105475;1251;61360;-60
2023/09/14 08:28:35;;;;;;;13.80;9.70;;;;;;;23.74;51.49;100330.08;105475;1254;63847;-61
2023/09/14 08:31:03;;;;;;;14.90;9.80;;;;;;;23.87;51.59;100327.94;105223;1256;60440;-61
2023/09/14 08:33:31;;;;;;;15.50;9.30;;;;;;;23.99;50.68;100327.91;105307;1254;60427;-60
2023/09/14 08:35:58;;;;;;;19.80;10.20;;;;;;;24.07;49.96;100326.10;105264;1255;64968;-59
2023/09/14 08:38:26;;;;;;;16.00;9.30;;;;;;;24.15;49.85;100330.58;105261;1251;61530;-59
2023/09/14 08:40:55;;;;;;;14.70;9.60;;;;;;;24.23;49.40;100330.54;106153;1252;63758;-58
2023/09/14 08:43:22;;;;;;;15.20;9.20;;;;;;;24.31;49.53;100328.97;105324;1254;60636;-60
2023/09/14 08:45:50;;;;;;;19.60;10.90;;;;;;;24.36;49.21;100329.44;105440;1251;60453;-61
2023/09/14 08:48:22;;;;;;;14.50;9.30;;;;;;;24.40;49.18;100321.39;105374;1257;66975;-62
2023/09/14 08:50:50;;;;;;;16.90;9.60;;;;;;;24.45;49.06;100320.46;106129;1254;60478;-58
2023/09/14 08:53:18;;;;;;;17.80;12.00;;;;;;;24.52;49.09;100324.05;105256;1258;62504;-59
2023/09/14 08:55:46;;;;;;;15.60;11.10;;;;;;;24.58;49.01;100325.89;109394;1250;58270;-58
2023/09/14 08:58:14;;;;;;;17.30;11.30;;;;;;;24.66;49.23;100321.52;109303;1251;58204;-58
2023/09/14 09:00:42;;;;;;;16.00;10.80;;;;;;;24.75;48.94;100322.20;109382;1250;65016;-58
2023/09/14 09:03:10;;;;;;;16.30;10.70;;;;;;;24.85;48.80;100323.53;105698;1256;60448;-55
2023/09/14 09:05:38;;;;;;;17.30;10.20;;;;;;;24.94;49.05;100319.36;109335;1251;63742;-61
2023/09/14 09:08:06;;;;;;;15.40;10.80;;;;;;;25.03;48.75;100315.94;109275;1251;58545;-58
2023/09/14 09:10:34;;;;;;;19.30;14.20;;;;;;;25.11;48.89;100317.58;109384;1251;58613;-61
2023/09/14 09:13:03;;;;;;;23.20;15.00;;;;;;;25.16;49.36;100315.29;109415;1251;66263;-59
2023/09/14 09:15:33;;;;;;;21.50;15.80;;;;;;;25.24;48.96;100318.83;105958;1256;72174;-60
2023/09/14 09:18:08;;;;;;;17.60;12.20;;;;;;;25.32;48.94;100320.48;107619;1251;66063;-60
2023/09/14 09:20:37;;;;;;;;;;;;;;;25.39;49.01;100320.61;108450;1251;58527;-62
2023/09/14 09:23:05;;;;;;;19.90;12.70;;;;;;;25.45;48.98;100319.98;107501;1251;60469;-61
2023/09/14 09:25:46;;;;;;;17.20;12.10;;;;;;;25.50;49.35;100316.61;106242;1251;67919;-62
2023/09/14 09:28:14;;;;;;;19.60;11.70;;;;;;;25.57;49.30;100315.05;105522;1251;61532;-59
2023/09/14 09:30:42;;;;;;;17.70;10.80;;;;;;;25.64;49.14;100310.61;105642;1257;62459;-61
2023/09/14 09:33:10;;;;;;;11.60;8.70;;;;;;;25.71;49.14;100310.25;105528;1251;60555;-61
2023/09/14 09:35:39;;;;;;;18.20;9.80;;;;;;;25.77;48.91;100308.44;105702;1254;60462;-60
2023/09/14 09:38:15;;;;;;;14.10;8.80;;;;;;;25.82;48.89;100303.00;105302;1251;65986;-62
2023/09/14 09:40:44;;;;;;;12.20;8.10;;;;;;;25.83;47.84;100301.58;105498;1253;61655;-61
2023/09/14 09:43:15;;;;;;;12.60;8.40;;;;;;;25.83;47.81;100301.32;105696;1257;63868;-61
2023/09/14 09:45:44;;;;;;;18.10;9.20;;;;;;;25.88;47.79;100297.94;105565;1251;60396;-60
2023/09/14 09:48:12;;;;;;;13.10;8.80;;;;;;;25.94;48.10;100299.16;108858;1251;58411;-60
2023/09/14 09:50:39;;;;;;;12.50;8.10;;;;;;;26.02;47.99;100303.16;105699;1251;65086;-60
2023/09/14 09:53:10;;;;;;;14.80;7.90;;;;;;;26.08;47.12;100297.30;105482;1256;60411;-60
2023/09/14 09:55:38;;;;;;;9.50;6.60;;;;;;;26.16;47.20;100296.46;105398;1250;62543;-59
2023/09/14 09:58:06;;;;;;;12.40;8.00;;;;;;;26.24;46.73;100295.27;105424;1254;60840;-59
2023/09/14 10:00:36;;;;;;;11.50;7.50;;;;;;;26.32;46.35;100294.83;105809;1251;60447;-63
2023/09/14 10:03:04;;;;;;;15.50;8.20;;;;;;;26.39;45.91;100295.06;105937;1251;64994;-60
2023/09/14 10:05:42;;;;;;;14.00;8.40;;;;;;;26.46;45.69;100294.50;106045;1256;60448;-59
2023/09/14 10:08:12;;;;;;;11.40;7.90;;;;;;;26.55;45.41;100293.59;106397;1251;63801;-61
2023/09/14 10:10:40;;;;;;;12.10;7.70;;;;;;;26.64;45.57;100286.20;105647;1255;60513;-61
2023/09/14 10:13:08;;;;;;;12.30;7.90;;;;;;;26.73;46.28;100283.09;105493;1256;60454;-62
2023/09/14 10:15:36;;;;;;;11.30;8.10;;;;;;;26.81;46.21;100282.65;105694;1252;63686;-61
2023/09/14 10:18:03;;;;;;;12.20;8.00;;;;;;;26.92;46.16;100282.52;105439;1253;60600;-61
2023/09/14 10:20:31;;;;;;;12.70;7.90;;;;;;;27.00;46.02;100282.18;105992;1257;63713;-61
2023/09/14 10:22:59;;;;;;;17.00;8.50;;;;;;;27.07;46.13;100277.83;105408;1251;61150;-61
2023/09/14 10:25:28;;;;;;;12.20;7.30;;;;;;;27.13;45.61;100276.65;105400;1251;60448;-63
2023/09/14 10:27:55;;;;;;;15.90;8.50;;;;;;;27.16;45.71;100278.71;106047;1251;63781;-60
2023/09/14 10:30:23;;;;;;;14.90;8.40;;;;;;;27.20;45.04;100274.48;105474;1251;61339;-62
2023/09/14 10:32:53;;;;;;;15.80;8.80;;;;;;;27.29;44.68;100272.59;104977;1251;62525;-62
2023/09/14 10:35:21;;;;;;;13.30;7.80;;;;;;;27.36;44.24;100272.00;105416;1251;60505;-61
2023/09/14 10:37:49;;;;;;;13.00;8.80;;;;;;;27.43;43.87;100267.84;105427;1251;60456;-60
2023/09/14 10:40:17;;;;;;;14.10;8.60;;;;;;;27.52;43.80;100273.81;107182;1252;64942;-60
2023/09/14 10:42:45;;;;;;;10.70;8.00;;;;;;;27.61;43.78;100273.90;109372;1251;60260;-60
2023/09/14 10:45:13;;;;;;;12.00;8.10;;;;;;;27.71;43.55;100271.60;107209;1251;63865;-58
2023/09/14 10:47:43;;;;;;;11.50;7.90;;;;;;;27.83;43.32;100268.55;105444;1251;60551;-59
2023/09/14 10:50:11;;;;;;;9.50;7.50;;;;;;;27.96;42.86;100263.89;105172;1257;60251;-60
2023/09/14 10:52:40;;;;;;;10.20;7.00;;;;;;;28.09;42.78;100260.53;105193;1251;63858;-59
2023/09/14 10:55:08;;;;;;;10.20;7.60;;;;;;;28.23;42.93;100256.84;109420;1251;62012;-59
2023/09/14 10:57:39;;;;;;;13.10;7.20;;;;;;;28.36;42.76;100257.07;109333;1251;63856;-60
2023/09/14 11:00:07;;;;;;;10.30;7.50;;;;;;;28.46;42.28;100255.61;107289;1251;60720;-62
2023/09/14 11:02:52;;;;;;;10.30;7.70;;;;;;;28.56;42.26;100252.01;107781;1255;59182;-63
2023/09/14 11:05:40;;;;;;;10.50;7.30;;;;;;;28.68;42.15;100251.45;105505;1255;76111;-63
2023/09/14 11:08:08;;;;;;;9.10;7.10;;;;;;;28.73;42.20;100250.45;105624;1250;61474;-60
2023/09/14 11:10:37;;;;;;;10.50;7.40;;;;;;;28.76;41.84;100246.64;105824;1254;63804;-61
2023/09/14 11:13:20;;;;;;;11.00;7.40;;;;;;;28.79;41.63;100245.40;105689;1251;60532;-64